Terminal Aerodrome Forecast
Issued by NWS Cleveland, OH

Home | Current Version | Previous Version | Graphics & Text | Print | Product List | Glossary On
Versions: 1 2 3 4 5 6 7 8 9 10 11 12 13 14 15 16 17
000
FTUS41 KCLE 251700
TAFTOL
TAF
KTOL 251739Z 2518/2618 25018G28KT P6SM OVC018
     FM252200 26012KT P6SM OVC015
     FM260200 27006KT P6SM SCT015 BKN250
     FM260600 VRB03KT P6SM BKN250
     FM261400 07003KT P6SM SCT250=

USA.gov is the U.S. government's official web portal to all federal, state and local government web resources and services.